Thorhult, Minnesota
Current Conditions -  °F | °C
As of 8:11 AM on Wednesday 26 Nov 2014 (Local Time) from KVWU Reporting Station
Scattered Clouds Scattered Clouds  
Wind Chill: -24°   Ceiling: Unl
Heat Index: -17°   Visibility: 10mi
Dew Point: -18°   Wind: 7mph
Humidity: 92%   Direction: 340°NNW
Pressure: 30.27"   Gusts: NA
Location:  48.23°N, 95.25°W
Report Text: KVWU 261411Z AUTO 34006KT 10SM SCT019 M17/M18 A3027 RMK AO2
Loading
Personal Weather Stations






























Interactive Weather Map New forecast layout! Learn more

10-Day Weather Forecast

Advertisements
Track Severe Weather on mobile